Temp     Hi    Low   Out    Dew  Wind  Wind   Wind    Hi    Hi   Wind   Heat    THW                Rain    Heat    Cool    In     In    In     In     In   In Air   Temp  Wind  Wind    ISS   Arc.
  Date    Time     Out   Temp   Temp   Hum    Pt. Speed   Dir    Run Speed   Dir  Chill  Index  Index   Bar    Rain  Rate    D-D     D-D    Temp   Hum    Dew   Heat    EMC Density    2nd  Samp   Tx   Recept  Int.
----------------------------------------------------------------------------------------------------------------------------------------------------------------------------------------------------------------------
23/11/20 12:10a   17.8   17.9   17.8    89   15.9   0.0   ---   0.00   0.0   ---   17.8   18.2   18.2  1008.5  0.00   0.0   0.004   0.000   25.1    50   13.9   24.9   9.21 1.1603     ---   153    1     67.1   10 
23/11/20 12:20a   17.7   17.8   17.7    89   15.8   0.0   ---   0.00   0.0   ---   17.7   18.1   18.1  1008.3  0.00   0.0   0.005   0.000   24.9    50   13.8   24.8   9.21 1.1606     ---   142    1     62.3   10 
23/11/20 12:30a   17.6   17.7   17.6    89   15.7   0.0   ---   0.00   0.0   ---   17.6   17.9   17.9  1008.2  0.00   0.0   0.005   0.000   24.9    50   13.8   24.8   9.21 1.1604     ---   127    1     55.7   10 
23/11/20 12:40a   17.6   17.6   17.5    89   15.7   0.0   ---   0.00   0.0   ---   17.6   17.9   17.9  1008.2  0.00   0.0   0.005   0.000   24.8    50   13.7   24.8   9.22 1.1610     ---   128    1     56.1   10 
23/11/20 12:50a   17.8   17.8   17.6    89   15.9   0.0   ---   0.00   0.0   ---   17.8   18.2   18.2  1009.3  1.02  13.5   0.004   0.000   24.8    50   13.7   24.8   9.22 1.1622     ---   180    1     78.9   10 
23/11/20  1:00a   17.4   17.8   17.4    90   15.7   0.0   ---   0.00   0.0   ---   17.4   17.8   17.8  1010.5  4.06  73.2   0.007   0.000   24.7    50   13.6   24.7   9.22 1.1642     ---   163    1     71.5   10 
23/11/20  1:10a   17.1   17.4   17.1    91   15.6   0.0   ---   0.00   0.0   ---   17.1   17.4   17.4  1010.5  1.78  57.2   0.009   0.000   24.7    50   13.5   24.6   9.22 1.1645     ---   165    1     72.4   10 
23/11/20  1:20a   16.9   17.1   16.9    92   15.6   0.0   ---   0.00   0.0   ---   16.9   17.3   17.3  1010.4  1.78  27.7   0.010   0.000   24.7    50   13.5   24.6   9.22 1.1644     ---   158    1     69.3   10 
23/11/20  1:30a   16.9   16.9   16.9    92   15.6   0.0   ---   0.00   0.0   ---   16.9   17.2   17.2  1010.1  0.76   7.1   0.010   0.000   24.6    50   13.4   24.6   9.23 1.1645     ---   159    1     69.7   10 
23/11/20  1:40a   16.9   16.9   16.9    93   15.7   0.0   ---   0.00   0.0   ---   16.9   17.3   17.3  1010.1  0.51   5.1   0.010   0.000   24.4    50   13.3   24.4   9.23 1.1651     ---   156    1     68.4   10 
23/11/20  1:50a   16.8   16.9   16.8    94   15.8   0.0   ---   0.00   0.0   ---   16.8   17.2   17.2  1009.5  0.25   2.5   0.011   0.000   24.4    50   13.3   24.4   9.23 1.1644     ---   145    1     63.6   10 
23/11/20  2:00a   16.8   16.8   16.8    94   15.8   0.0   ---   0.00   0.0   ---   16.8   17.2   17.2  1009.6  0.76   4.3   0.011   0.000   24.3    50   13.2   24.3   9.23 1.1651     ---   132    1     57.9   10 
23/11/20  2:10a   16.8   16.8   16.8    95   16.0   0.0   ---   0.00   0.0   ---   16.8   17.2   17.2  1009.6  0.51   3.8   0.011   0.000   24.3    51   13.5   24.4   9.35 1.1647     ---   130    1     57.0   10 
23/11/20  2:20a   16.8   16.9   16.8    95   16.0   0.0   ---   0.00   0.0   ---   16.8   17.2   17.2  1009.1  0.51   3.8   0.011   0.000   24.3    51   13.5   24.3   9.35 1.1645     ---   186    1     81.6   10 
23/11/20  2:30a   16.9   16.9   16.8    96   16.2   0.0   ---   0.00   0.0   ---   16.9   17.3   17.3  1008.9  0.76   8.1   0.010   0.000   24.3    51   13.5   24.3   9.35 1.1642     ---   168    1     73.7   10 
23/11/20  2:40a   16.9   16.9   16.9    96   16.3   0.0   ---   0.00   0.0   ---   16.9   17.4   17.4  1008.9  1.02   5.8   0.010   0.000   24.2    51   13.4   24.2   9.35 1.1648     ---   165    1     72.4   10 
23/11/20  2:50a   16.9   17.1   16.9    96   16.3   0.0   ---   0.00   0.0   ---   16.9   17.4   17.4  1008.1  1.27  12.4   0.010   0.000   24.2    51   13.4   24.2   9.35 1.1639     ---   168    1     73.7   10 
23/11/20  3:00a   16.9   17.1   16.9    96   16.3   0.0   ---   0.00   0.0   ---   16.9   17.4   17.4  1007.5  0.76   6.9   0.010   0.000   24.1    51   13.3   24.1   9.35 1.1637     ---   170    1     74.6   10 
23/11/20  3:10a   16.9   17.1   16.9    96   16.3   0.0   ---   0.00   0.0   ---   16.9   17.4   17.4  1007.5  0.76   3.8   0.010   0.000   23.9    51   13.2   24.1   9.35 1.1643     ---   166    1     72.8   10 
23/11/20  3:20a   16.9   16.9   16.9    97   16.5   0.0   ---   0.00   0.0   ---   16.9   17.4   17.4  1006.7  0.25   3.6   0.010   0.000   23.9    51   13.2   24.1   9.35 1.1633     ---   144    1     63.2   10 
23/11/20  3:30a   16.9   16.9   16.9    97   16.4   0.0   ---   0.00   0.0   ---   16.9   17.3   17.3  1006.7  0.00   1.0   0.010   0.000   23.9    51   13.2   24.1   9.35 1.1633     ---    65    1     28.5   10 
23/11/20  3:40a   16.9   16.9   16.9    97   16.4   0.0   ---   0.00   0.0   ---   16.9   17.3   17.3  1006.7  0.00   0.0   0.010   0.000   23.9    51   13.2   24.1   9.35 1.1633     ---   129    1     56.6   10 
23/11/20  3:50a   16.7   16.9   16.7    97   16.2   0.0   ---   0.00   0.0   ---   16.7   17.2   17.2  1006.5  0.00   0.0   0.011   0.000   23.9    51   13.1   24.0   9.35 1.1633     ---   179    1     78.5   10 
23/11/20  4:00a   16.7   16.8   16.7    98   16.4   0.0   ---   0.00   0.0   ---   16.7   17.2   17.2  1006.2  0.00   0.0   0.011   0.000   23.9    51   13.1   24.0   9.35 1.1629     ---   153    1     67.1   10 
23/11/20  4:10a   16.6   16.7   16.6    98   16.3   0.0   ---   0.00   0.0   ---   16.6   17.0   17.0  1006.2  0.00   0.0   0.012   0.000   23.8    51   13.0   23.8   9.35 1.1635     ---   159    1     69.7   10 
23/11/20  4:20a   16.6   16.7   16.6    99   16.5   0.0   ---   0.00   0.0   ---   16.6   17.1   17.1  1006.1  0.00   0.0   0.012   0.000   23.7    51   12.9   23.7   9.36 1.1639     ---   162    1     71.1   10 
23/11/20  4:30a   16.6   16.7   16.6    99   16.5   0.0   ---   0.00   0.0   ---   16.6   17.1   17.1  1006.0  0.00   0.0   0.012   0.000   23.7    51   12.9   23.7   9.36 1.1638     ---   158    1     69.3   10 
23/11/20  4:40a   16.6   16.7   16.6    99   16.5   0.0   ---   0.00   0.0   ---   16.6   17.1   17.1  1006.0  0.00   0.0   0.012   0.000   23.6    51   12.8   23.6   9.36 1.1644     ---   162    1     71.1   10 
23/11/20  4:50a   16.6   16.7   16.6    99   16.5   0.0   ---   0.00   0.0   ---   16.6   17.1   17.1  1005.9  0.25   0.0   0.012   0.000   23.6    51   12.8   23.6   9.36 1.1642     ---   149    1     65.4   10 
23/11/20  5:00a   16.5   16.6   16.5    99   16.3   0.0   ---   0.00   0.0   ---   16.5   16.9   16.9  1005.7  0.00   0.0   0.013   0.000   23.5    51   12.8   23.4   9.36 1.1644     ---   129    1     56.6   10 
23/11/20  5:10a   16.5   16.6   16.5   100   16.5   0.0   ---   0.00   0.0   ---   16.5   16.9   16.9  1005.7  0.00   0.0   0.013   0.000   23.5    52   13.1   23.5   9.56 1.1640     ---   130    1     57.0   10 
23/11/20  5:20a   16.6   16.6   16.5   100   16.6   0.0   ---   0.00   0.0   ---   16.6   17.1   17.1  1005.7  0.00   0.0   0.012   0.000   23.4    52   13.0   23.3   9.57 1.1645     ---   176    1     77.2   10 
23/11/20  5:30a   16.6   16.7   16.6   100   16.6   0.0   ---   0.00   0.0   ---   16.6   17.1   17.1  1005.6  0.25   0.0   0.012   0.000   23.4    52   13.0   23.3   9.57 1.1644     ---   166    1     72.8   10 
23/11/20  5:40a   16.7   16.7   16.6   100   16.7   0.0   ---   0.00   0.0   ---   16.7   17.2   17.2  1005.6  0.00   0.0   0.011   0.000   23.4    52   13.0   23.3   9.57 1.1644     ---   158    1     69.3   10 
23/11/20  5:50a   16.7   16.7   16.7   100   16.7   0.0   ---   0.00   0.0   ---   16.7   17.2   17.2  1005.6  0.00   0.0   0.011   0.000   23.3    52   12.9   23.2   9.57 1.1650     ---   159    1     69.7   10 
23/11/20  6:00a   16.7   16.7   16.7   100   16.7   0.0   ---   0.00   0.0   ---   16.7   17.2   17.2  1005.6  0.00   0.0   0.011   0.000   23.3    52   12.9   23.2   9.57 1.1649     ---   159    1     69.7   10 
23/11/20  6:10a   16.7   16.7   16.7   100   16.7   0.0   ---   0.00   0.0   ---   16.7   17.2   17.2  1005.6  0.00   0.0   0.011   0.000   23.2    52   12.8   23.1   9.58 1.1655     ---   161    1     70.6   10 
23/11/20  6:20a   16.8   16.8   16.7   100   16.8   0.0   ---   0.00   0.0   ---   16.8   17.2   17.2  1006.8  0.25   0.0   0.011   0.000   23.2    52   12.8   23.1   9.58 1.1670     ---   142    1     62.3   10 
23/11/20  6:30a   16.9   16.9   16.8   100   16.9   0.0   ---   0.00   0.0   ---   16.9   17.4   17.4  1006.9  0.00   0.0   0.010   0.000   23.2    52   12.8   23.1   9.58 1.1671     ---   125    1     54.8   10 
23/11/20  6:40a   16.9   16.9   16.9   100   16.9   0.0   ---   0.00   0.0   ---   16.9   17.4   17.4  1006.9  0.00   0.0   0.010   0.000   23.1    52   12.7   23.0   9.58 1.1674     ---   137    1     60.1   10 
23/11/20  6:50a   17.1   17.1   16.9   100   17.1   0.0   ---   0.00   0.0   ---   17.1   17.6   17.6  1006.8  0.00   0.0   0.009   0.000   23.1    52   12.7   23.0   9.58 1.1672     ---   180    1     78.9   10 
23/11/20  7:00a   17.1   17.1   17.1   100   17.1   0.0   ---   0.00   0.0   ---   17.1   17.6   17.6  1007.0  0.00   0.0   0.009   0.000   23.1    52   12.7   23.0   9.58 1.1674     ---   153    1     67.1   10 
23/11/20  7:10a   17.1   17.1   17.1   100   17.1   0.0   ---   0.00   0.0   ---   17.1   17.6   17.6  1007.0  0.00   0.0   0.009   0.000   23.1    52   12.7   23.0   9.58 1.1674     ---   156    1     68.4   10 
23/11/20  7:20a   17.1   17.1   17.1   100   17.1   0.0   ---   0.00   0.0   ---   17.1   17.6   17.6  1006.3  0.00   0.0   0.009   0.000   23.2    52   12.8   23.1   9.58 1.1663     ---   127    1     55.7   10 
23/11/20  7:30a   17.1   17.1   17.1   100   17.1   0.0   ---   0.00   0.0   ---   17.1   17.7   17.7  1006.4  0.00   0.0   0.008   0.000   23.3    52   12.9   23.2   9.57 1.1660     ---   133    1     58.3   10 
23/11/20  7:40a   17.2   17.2   17.1   100   17.2   0.0   ---   0.00   0.0   ---   17.2   17.8   17.8  1006.4  0.00   0.0   0.008   0.000   23.3    52   12.9   23.2   9.57 1.1660     ---   118    1     51.8   10 
23/11/20  7:50a   17.2   17.2   17.2   100   17.2   0.0   ---   0.00   0.0   ---   17.2   17.8   17.8  1006.7  0.25   0.0   0.008   0.000   23.3    52   12.9   23.2   9.57 1.1663     ---    80    1     35.1   10 
23/11/20  8:00a   17.3   17.3   17.2   100   17.3   0.0   ---   0.00   0.0   ---   17.3   17.9   17.9  1006.9  0.00   0.0   0.007   0.000   23.3    52   12.9   23.2   9.57 1.1665     ---   108    1     47.4   10 
23/11/20  8:10a   17.4   17.4   17.3   100   17.4   0.0   ---   0.00   0.0   ---   17.4   17.9   17.9  1006.9  0.51   3.6   0.007   0.000   23.2    52   12.8   23.1   9.58 1.1671     ---   128    1     56.1   10 
23/11/20  8:20a   17.6   17.6   17.4   100   17.6   0.0   ---   0.00   0.0   ---   17.6   18.2   18.2  1006.8  0.00   1.0   0.005   0.000   23.2    52   12.8   23.1   9.58 1.1669     ---   180    1     78.9   10 
23/11/20  8:30a   17.8   17.8   17.6   100   17.8   0.0   ---   0.00   0.0   ---   17.8   18.4   18.4  1005.7  0.00   0.0   0.003   0.000   23.3    52   12.9   23.2   9.57 1.1650     ---   157    1     68.9   10 
23/11/20  8:40a   17.8   17.9   17.8   100   17.8   0.0   ---   0.00   0.0   ---   17.8   18.4   18.4  1005.7  0.00   0.0   0.003   0.000   23.3    52   12.9   23.2   9.57 1.1650     ---   157    1     68.9   10 
23/11/20  8:50a   17.8   17.9   17.8   100   17.8   0.0   ---   0.00   0.0   ---   17.8   18.4   18.4  1005.9  0.00   0.0   0.004   0.000   23.3    52   12.9   23.2   9.57 1.1653     ---   148    1     64.9   10 
23/11/20  9:00a   17.8   17.8   17.7   100   17.8   0.0   ---   0.00   0.0   ---   17.8   18.4   18.4  1005.5  0.00   0.0   0.004   0.000   23.3    52   12.9   23.2   9.57 1.1648     ---   160    1     70.2   10 
23/11/20  9:10a   17.9   17.9   17.8   100   17.9   0.0   ---   0.00   0.0   ---   17.9   18.6   18.6  1005.5  0.00   0.0   0.003   0.000   23.4    52   13.0   23.3   9.57 1.1643     ---   154    1     67.5   10 
23/11/20  9:20a   18.3   18.3   17.9   100   18.3   0.0   ---   0.00   0.0   ---   18.3   19.0   19.0  1005.4  0.00   0.0   0.000   0.000   23.6    52   13.1   23.6   9.56 1.1633     ---   133    1     58.3   10 
23/11/20  9:30a   18.6   18.6   18.4   100   18.6   0.0   ---   0.00   0.0   ---   18.6   19.3   19.3  1005.3  0.00   0.0   0.000   0.002   23.8    52   13.3   23.9   9.55 1.1621     ---   114    1     50.0   10 
23/11/20  9:40a   18.5   18.7   18.5   100   18.5   0.0   ---   0.00   0.0   ---   18.5   19.3   19.3  1005.3  0.00   0.0   0.000   0.001   23.9    52   13.4   24.1   9.55 1.1615     ---   133    1     58.3   10 
23/11/20  9:50a   18.4   18.5   18.4   100   18.4   0.0   ---   0.00   0.0   ---   18.4   19.1   19.1  1005.2  0.00   0.0   0.000   0.000   23.9    51   13.1   24.0   9.35 1.1618     ---   165    1     72.4   10 
23/11/20 10:00a   18.6   18.6   18.4    98   18.2   0.0   ---   0.00   0.0   ---   18.6   19.3   19.3  1004.7  0.00   0.0   0.000   0.002   23.9    51   13.2   24.1   9.35 1.1610     ---   146    1     64.0   10 
23/11/20 10:10a   18.5   18.6   18.5    95   17.7   0.0   ---   0.00   0.0   ---   18.5   19.2   19.2  1004.7  0.00   0.0   0.000   0.001   23.9    51   13.1   24.0   9.35 1.1612     ---   143    1     62.7   10 
23/11/20 10:20a   18.5   18.6   18.5    94   17.5   0.0   ---   0.00   0.0   ---   18.5   19.2   19.2  1004.8  0.00   0.0   0.000   0.001   23.9    51   13.1   24.0   9.35 1.1614     ---   147    1     64.5   10 
23/11/20 10:30a   18.5   18.6   18.5    92   17.2   0.0   ---   0.00   0.0   ---   18.5   19.2   19.2  1005.2  0.00   0.0   0.000   0.001   23.9    51   13.1   24.0   9.35 1.1618     ---   147    1     64.5   10 
23/11/20 10:40a   18.6   18.6   18.5    89   16.7   0.0   ---   0.00   0.0   ---   18.6   19.2   19.2  1005.2  0.00   0.0   0.000   0.002   23.8    51   13.0   23.8   9.35 1.1624     ---   149    1     65.4   10 
23/11/20 10:50a   18.6   18.6   18.5    88   16.5   0.0   ---   0.00   0.0   ---   18.6   19.1   19.1  1004.9  0.00   0.0   0.000   0.002   23.8    51   13.0   23.8   9.35 1.1620     ---   127    1     55.7   10 
23/11/20 11:00a   18.7   18.7   18.6    88   16.6   0.0   ---   0.00   0.0   ---   18.7   19.3   19.3  1004.5  0.00   0.0   0.000   0.002   23.8    51   13.0   23.8   9.35 1.1616     ---   111    1     48.7   10 
23/11/20 11:10a   18.8   18.8   18.7    87   16.6   0.0   ---   0.00   0.0   ---   18.8   19.4   19.4  1004.5  0.00   0.0   0.000   0.003   23.9    51   13.1   24.0   9.35 1.1610     ---   146    1     64.0   10 
23/11/20 11:20a   19.1   19.1   18.8    86   16.7   0.0   ---   0.00   0.0   ---   19.1   19.8   19.8  1004.6  0.00   0.0   0.000   0.005   23.9    52   13.4   24.1   9.55 1.1608     ---   153    1     67.1   10 
23/11/20 11:30a   19.4   19.4   19.1    84   16.6   0.0   ---   0.00   0.0   ---   19.4   20.1   20.1  1004.5  0.00   0.0   0.000   0.007   23.9    52   13.5   24.1   9.55 1.1604     ---   154    1     67.5   10 
23/11/20 11:40a   19.7   19.7   19.4    82   16.5   0.0   ---   0.00   0.0   ---   19.7   20.4   20.4  1004.5  0.00   0.0   0.000   0.009   24.1    51   13.3   24.1   9.35 1.1602     ---   149    1     65.4   10 
23/11/20 11:50a   20.2   20.2   19.7    80   16.7   0.0   ---   0.00   0.0   ---   20.2   21.0   21.0  1003.7  0.00   0.0   0.000   0.013   24.3    51   13.5   24.4   9.35 1.1578     ---   141    1     61.8   10 
23/11/20 12:00p   20.4   20.5   20.2    77   16.2   0.0   ---   0.00   0.0   ---   20.4   21.1   21.1  1004.0  0.00   0.0   0.000   0.014   24.4    51   13.6   24.5   9.35 1.1577     ---   146    1     64.0   10 
23/11/20 12:10p   20.4   20.4   20.3    77   16.2   0.0   ---   0.00   0.0   ---   20.4   21.1   21.1  1004.0  0.00   0.0   0.000   0.014   24.6    50   13.4   24.6   9.23 1.1575     ---   138    1     60.5   10 
23/11/20 12:20p   20.7   20.7   20.4    75   16.1   0.0   ---   0.00   0.0   ---   20.7   21.2   21.2  1003.6  0.00   0.0   0.000   0.016   24.7    50   13.5   24.6   9.22 1.1565     ---   117    1     51.3   10 
23/11/20 12:30p   20.8   20.8   20.7    74   16.0   0.0   ---   0.00   0.0   ---   20.8   21.2   21.2  1003.1  0.00   0.0   0.000   0.017   24.8    50   13.7   24.8   9.22 1.1550     ---   106    1     46.5   10 
23/11/20 12:40p   21.2   21.2   20.8    71   15.8   0.0   ---   0.00   0.0   ---   21.2   21.4   21.4  1003.1  0.00   0.0   0.000   0.020   25.1    49   13.6   24.9   9.01 1.1542     ---   156    1     68.4   10 
23/11/20 12:50p   21.3   21.3   21.2    71   15.9   0.0   ---   0.00   0.0   ---   21.3   21.5   21.5  1003.3  0.00   0.0   0.000   0.021   25.2    49   13.7   25.1   9.00 1.1539     ---   137    1     60.1   10 
23/11/20  1:00p   20.8   21.3   20.8    72   15.6   0.0   ---   0.00   0.0   ---   20.8   21.1   21.1  1003.4  0.00   0.0   0.000   0.017   25.1    49   13.6   24.9   9.01 1.1546     ---   141    1     61.8   10 
23/11/20  1:10p   20.6   20.8   20.6    73   15.5   0.0   ---   0.00   0.0   ---   20.6   21.0   21.0  1003.4  0.00   0.0   0.000   0.015   24.9    49   13.5   24.8   9.01 1.1551     ---   145    1     63.6   10 
23/11/20  1:20p   18.8   20.6   18.8    61   11.1   0.0   ---   0.00   0.0   ---   18.8   18.5   18.5  1004.3  0.00   0.0   0.000   0.003   24.7    49   13.3   24.6   9.02 1.1573     ---   148    1     64.9   10 
23/11/20  1:30p   15.4   18.7   15.4    77   11.4   0.0   ---   0.00   0.0   ---   15.4   15.2   15.2  1006.0  2.79  52.6   0.020   0.000   24.7    49   13.2   24.6   9.02 1.1596     ---   146    1     64.0   10 
23/11/20  1:40p   14.2   15.4   14.2    84   11.6   0.0   ---   0.00   0.0   ---   14.2   14.2   14.2  1006.0  2.03  28.7   0.029   0.000   24.4    49   13.0   24.4   9.03 1.1607     ---   122    1     53.5   10 
23/11/20  1:50p   14.1   14.2   14.1    86   11.8   0.0   ---   0.00   0.0   ---   14.1   14.1   14.1  1005.3  0.00   1.3   0.029   0.000   24.3    49   12.9   24.3   9.03 1.1604     ---   123    1     53.9   10 
23/11/20  2:00p   14.2   14.2   14.1    88   12.3   0.0   ---   0.00   0.0   ---   14.2   14.2   14.2  1004.5  0.51   2.0   0.029   0.000   24.2    50   13.1   24.2   9.24 1.1600     ---   131    1     57.5   10 
23/11/20  2:10p   14.4   14.4   14.2    89   12.6   0.0   ---   0.00   0.0   ---   14.4   14.4   14.4  1004.5  0.00   1.5   0.027   0.000   24.1    50   13.0   24.1   9.24 1.1606     ---   176    1     77.2   10 
23/11/20  2:20p   14.9   14.9   14.4    91   13.4   0.0   ---   0.00   0.0   ---   14.9   15.0   15.0  1004.3  0.00   0.0   0.024   0.000   24.1    50   13.0   24.1   9.24 1.1602     ---   155    1     68.0   10 
23/11/20  2:30p   15.4   15.4   14.9    91   13.9   0.0   ---   0.00   0.0   ---   15.4   15.6   15.6  1004.1  0.00   0.0   0.020   0.000   23.9    50   12.9   24.0   9.25 1.1606     ---   148    1     64.9   10 
23/11/20  2:40p   15.2   15.4   15.2    91   13.7   0.0   ---   0.00   0.0   ---   15.2   15.3   15.3  1004.1  0.00   0.0   0.022   0.000   23.9    50   12.9   24.0   9.25 1.1606     ---   156    1     68.4   10 
23/11/20  2:50p   15.3   15.3   15.2    92   14.0   0.0   ---   0.00   0.0   ---   15.3   15.5   15.5  1003.4  0.00   0.0   0.021   0.000   23.9    50   12.9   24.0   9.25 1.1598     ---   156    1     68.4   10 
23/11/20  3:00p   15.7   15.7   15.3    92   14.4   0.0   ---   0.00   0.0   ---   15.7   15.9   15.9  1003.0  0.00   0.0   0.019   0.000   23.9    50   12.9   24.0   9.25 1.1593     ---   141    1     61.8   10 
23/11/20  3:10p   16.3   16.3   15.7    93   15.1   0.0   ---   0.00   0.0   ---   16.3   16.6   16.6  1003.0  0.00   0.0   0.014   0.000   24.1    50   13.0   24.1   9.24 1.1588     ---   141    1     61.8   10 
23/11/20  3:20p   16.9   16.9   16.3    92   15.6   0.0   ---   0.00   0.0   ---   16.9   17.2   17.2  1002.5  0.00   0.0   0.010   0.000   24.2    50   13.1   24.2   9.24 1.1577     ---   119    1     52.2   10 
23/11/20  3:30p   17.2   17.2   16.9    89   15.4   0.0   ---   0.00   0.0   ---   17.2   17.6   17.6  1002.5  0.00   0.0   0.008   0.000   24.2    49   12.8   24.2   9.04 1.1579     ---   113    1     49.6   10 
23/11/20  3:40p   17.6   17.6   17.2    87   15.4   0.0   ---   0.00   0.0   ---   17.6   17.9   17.9  1002.5  0.00   0.0   0.005   0.000   24.3    49   12.9   24.2   9.04 1.1574     ---   170    1     74.6   10 
23/11/20  3:50p   17.8   17.8   17.6    85   15.2   0.0   ---   0.00   0.0   ---   17.8   18.1   18.1  1002.3  0.00   0.0   0.004   0.000   24.3    49   12.9   24.3   9.03 1.1569     ---   152    1     66.7   10 
23/11/20  4:00p   18.1   18.1   17.8    83   15.2   0.0   ---   0.00   0.0   ---   18.1   18.5   18.5  1002.1  0.00   0.0   0.002   0.000   24.4    49   13.0   24.4   9.03 1.1562     ---   135    1     59.2   10 
23/11/20  4:10p   18.2   18.2   18.1    81   14.9   0.0   ---   0.00   0.0   ---   18.2   18.6   18.6  1002.1  0.00   0.0   0.001   0.000   24.6    49   13.1   24.5   9.03 1.1556     ---   152    1     66.7   10 
23/11/20  4:20p   18.4   18.4   18.2    80   14.9   0.0   ---   0.00   0.0   ---   18.4   18.8   18.8  1002.2  0.00   0.0   0.000   0.000   24.7    49   13.2   24.6   9.02 1.1552     ---   153    1     67.1   10 
23/11/20  4:30p   19.4   19.4   18.4    78   15.5   0.0   ---   0.00   0.0   ---   19.4   19.9   19.9  1002.1  0.00   0.0   0.000   0.008   24.7    48   12.9   24.6   8.92 1.1554     ---   146    1     64.0   10 
23/11/20  4:40p   20.0   20.0   19.4    71   14.6   0.0   ---   0.00   0.0   ---   20.0   20.4   20.4  1002.1  0.00   0.0   0.000   0.012   24.7    48   12.9   24.6   8.92 1.1554     ---   134    1     58.8   10 
23/11/20  4:50p   20.6   20.6   20.0    68   14.4   0.0   ---   0.00   0.0   ---   20.6   20.7   20.7  1002.0  0.00   0.0   0.000   0.015   24.7    48   12.9   24.6   8.92 1.1552     ---   113    1     49.6   10 
23/11/20  5:00p   20.9   20.9   20.6    68   14.8   0.0   ---   0.00   0.0   ---   20.9   20.9   20.9  1001.7  0.00   0.0   0.000   0.018   24.7    48   13.0   24.6   8.92 1.1547     ---   132    1     57.9   10 
23/11/20  5:10p   20.8   21.1   20.8    67   14.5   0.0   ---   0.00   0.0   ---   20.8   20.8   20.8  1001.7  0.00   0.0   0.000   0.017   24.7    48   13.0   24.6   8.92 1.1547     ---   158    1     69.3   10 
23/11/20  5:20p   20.7   20.8   20.7    67   14.3   0.0   ---   0.00   0.0   ---   20.7   20.7   20.7  1002.0  0.00   0.0   0.000   0.016   24.7    48   13.0   24.6   8.92 1.1550     ---   150    1     65.8   10 
23/11/20  5:30p   20.8   20.8   20.7    68   14.7   0.0   ---   0.00   0.0   ---   20.8   20.9   20.9  1002.3  0.00   0.0   0.000   0.017   24.7    49   13.3   24.6   9.02 1.1550     ---   152    1     66.7   10 
23/11/20  5:40p   20.7   20.8   20.7    68   14.5   0.0   ---   0.00   0.0   ---   20.7   20.7   20.7  1002.3  0.00   0.0   0.000   0.016   24.7    49   13.3   24.6   9.02 1.1550     ---   152    1     66.7   10 
23/11/20  5:50p   20.5   20.7   20.5    68   14.4   0.0   ---   0.00   0.0   ---   20.5   20.6   20.6  1002.6  0.00   0.0   0.000   0.015   24.7    49   13.3   24.6   9.02 1.1554     ---   152    1     66.7   10 
23/11/20  6:00p   20.1   20.4   20.1    69   14.2   0.0   ---   0.00   0.0   ---   20.1   20.4   20.4  1002.9  0.00   0.0   0.000   0.012   24.7    49   13.2   24.6   9.02 1.1560     ---   143    1     62.7   10 
23/11/20  6:10p   20.7   20.7   20.1    71   15.2   0.0   ---   0.00   0.0   ---   20.7   20.9   20.9  1002.9  0.00   0.0   0.000   0.016   24.7    49   13.2   24.6   9.02 1.1560     ---   108    1     47.4   10 
23/11/20  6:20p   21.5   21.5   20.7    64   14.4   0.0   ---   0.00   0.0   ---   21.5   21.4   21.4  1003.3  0.00   0.0   0.000   0.022   24.7    49   13.3   24.6   9.02 1.1562     ---    93    1     40.8   10 
23/11/20  6:30p   21.7   21.7   21.5    64   14.6   0.0   ---   0.00   0.0   ---   21.7   21.6   21.6  1003.5  0.00   0.0   0.000   0.023   24.8    49   13.4   24.7   9.02 1.1558     ---   159    1     69.7   10 
23/11/20  6:40p   21.5   21.7   21.5    65   14.6   0.0   ---   0.00   0.0   ---   21.5   21.4   21.4  1003.5  0.00   0.0   0.000   0.022   24.7    49   13.3   24.6   9.02 1.1563     ---   150    1     65.8   10 
23/11/20  6:50p   21.2   21.5   21.2    65   14.4   0.0   ---   0.00   0.0   ---   21.2   21.1   21.1  1003.6  0.00   0.0   0.000   0.020   24.7    49   13.3   24.6   9.02 1.1565     ---   149    1     65.4   10 
23/11/20  7:00p   20.9   21.2   20.9    67   14.6   0.0   ---   0.00   0.0   ---   20.9   20.9   20.9  1003.9  0.00   0.0   0.000   0.018   24.7    49   13.2   24.6   9.02 1.1571     ---   143    1     62.7   10 
23/11/20  7:10p   20.8   20.9   20.8    67   14.4   0.0   ---   0.00   0.0   ---   20.8   20.8   20.8  1003.9  0.00   0.0   0.000   0.017   24.6    50   13.4   24.6   9.23 1.1573     ---   144    1     63.2   10 
23/11/20  7:20p   20.4   20.8   20.4    67   14.1   0.0   ---   0.00   0.0   ---   20.4   20.5   20.5  1004.2  0.00   0.0   0.000   0.014   24.4    50   13.3   24.4   9.23 1.1582     ---   153    1     67.1   10 
23/11/20  7:30p   19.9   20.4   19.9    70   14.3   0.0   ---   0.00   0.0   ---   19.9   20.3   20.3  1004.4  0.00   0.0   0.000   0.011   24.3    50   13.2   24.3   9.23 1.1590     ---   137    1     60.1   10 
23/11/20  7:40p   19.4   19.9   19.4    72   14.2   0.0   ---   0.00   0.0   ---   19.4   19.7   19.7  1004.4  0.00   0.0   0.000   0.007   24.3    50   13.2   24.3   9.24 1.1593     ---   115    1     50.4   10 
23/11/20  7:50p   18.9   19.4   18.9    72   13.8   0.0   ---   0.00   0.0   ---   18.9   19.1   19.1  1004.8  0.00   0.0   0.000   0.004   24.2    50   13.1   24.2   9.24 1.1604     ---   119    1     52.2   10 
23/11/20  8:00p   18.7   18.9   18.7    74   14.0   0.0   ---   0.00   0.0   ---   18.7   18.9   18.9  1005.0  0.00   0.0   0.000   0.003   24.1    50   13.0   24.1   9.24 1.1612     ---   168    1     73.7   10 
23/11/20  8:10p   18.6   18.7   18.6    76   14.2   0.0   ---   0.00   0.0   ---   18.6   18.8   18.8  1005.0  0.00   0.0   0.000   0.002   24.1    50   13.0   24.1   9.24 1.1612     ---   139    1     61.0   10 
23/11/20  8:20p   18.4   18.6   18.4    77   14.3   0.0   ---   0.00   0.0   ---   18.4   18.7   18.7  1005.5  0.00   0.0   0.000   0.000   23.9    51   13.2   24.1   9.35 1.1618     ---   150    1     65.8   10 
23/11/20  8:30p   18.2   18.4   18.2    77   14.1   0.0   ---   0.00   0.0   ---   18.2   18.4   18.4  1005.7  0.00   0.0   0.001   0.000   23.9    51   13.1   24.0   9.35 1.1624     ---   145    1     63.6   10 
23/11/20  8:40p   17.9   18.1   17.9    78   14.1   0.0   ---   0.00   0.0   ---   17.9   18.2   18.2  1005.7  0.00   0.0   0.003   0.000   23.9    51   13.1   24.0   9.35 1.1624     ---   140    1     61.4   10 
23/11/20  8:50p   17.8   17.9   17.8    77   13.7   0.0   ---   0.00   0.0   ---   17.8   18.0   18.0  1005.6  0.00   0.0   0.003   0.000   23.9    52   13.5   24.1   9.55 1.1616     ---    75    1     32.9   10 
23/11/20  9:00p   17.8   17.8   17.7    76   13.5   0.0   ---   0.00   0.0   ---   17.8   17.9   17.9  1005.8  0.00   0.0   0.004   0.000   23.9    52   13.4   24.1   9.55 1.1622     ---   137    1     60.1   10 
23/11/20  9:10p   17.5   17.8   17.5    76   13.2   0.0   ---   0.00   0.0   ---   17.5   17.6   17.6  1005.8  0.00   0.0   0.006   0.000   23.9    52   13.5   24.1   9.55 1.1619     ---    68    1     29.8   10 
23/11/20  9:20p   17.5   17.5   17.4    68   11.5   0.0   ---   0.00   0.0   ---   17.5   17.3   17.3  1005.9  0.00   0.0   0.006   0.000   23.9    52   13.5   24.1   9.55 1.1620     ---    78    1     34.2   10 
23/11/20  9:30p   17.4   17.5   17.4    68   11.4   0.0   ---   0.00   0.0   ---   17.4   17.2   17.2  1005.9  0.00   0.0   0.007   0.000   23.9    52   13.4   24.1   9.55 1.1622     ---   155    1     68.0   10 
23/11/20  9:40p   17.1   17.4   17.1    67   10.9   0.0   ---   0.00   0.0   ---   17.1   16.8   16.8  1005.9  0.00   0.0   0.008   0.000   23.9    52   13.4   24.1   9.55 1.1622     ---   140    1     61.4   10 
23/11/20  9:50p   16.9   17.1   16.9    67   10.8   0.0   ---   0.00   0.0   ---   16.9   16.7   16.7  1006.0  0.00   0.0   0.010   0.000   23.8    52   13.3   23.9   9.55 1.1630     ---   137    1     60.1   10 
23/11/20 10:00p   16.7   16.9   16.7    70   11.2   0.0   ---   0.00   0.0   ---   16.7   16.4   16.4  1006.4  0.00   0.0   0.011   0.000   23.7    52   13.2   23.7   9.56 1.1639     ---   145    1     63.6   10 
23/11/20 10:10p   16.3   16.7   16.3    73   11.4   0.0   ---   0.00   0.0   ---   16.3   16.1   16.1  1006.4  0.00   0.0   0.014   0.000   23.7    52   13.2   23.7   9.56 1.1639     ---   133    1     58.3   10 
23/11/20 10:20p   15.9   16.3   15.9    74   11.3   0.0   ---   0.00   0.0   ---   15.9   15.7   15.7  1006.4  0.00   0.0   0.017   0.000   23.8    52   13.3   23.9   9.55 1.1634     ---   137    1     60.1   10 
23/11/20 10:30p   15.6   15.9   15.6    74   10.9   0.0   ---   0.00   0.0   ---   15.6   15.3   15.3  1006.6  0.00   0.0   0.019   0.000   23.9    52   13.4   24.1   9.55 1.1632     ---    63    1     27.6   10 
23/11/20 10:40p   15.3   15.6   15.3    76   11.1   0.0   ---   0.00   0.0   ---   15.3   15.1   15.1  1006.6  0.00   0.0   0.021   0.000   23.9    51   13.1   24.0   9.35 1.1635     ---   100    1     43.9   10 
23/11/20 10:50p   15.0   15.2   15.0    78   11.2   0.0   ---   0.00   0.0   ---   15.0   14.8   14.8  1007.0  0.00   0.0   0.023   0.000   23.9    51   13.1   24.0   9.35 1.1639     ---    91    1     39.9   10 
23/11/20 11:00p   14.7   15.0   14.7    78   10.9   0.0   ---   0.00   0.0   ---   14.7   14.5   14.5  1007.3  0.00   0.0   0.025   0.000   23.9    51   13.1   24.0   9.35 1.1642     ---   176    1     77.2   10 
23/11/20 11:10p   14.4   14.7   14.4    79   10.8   0.0   ---   0.00   0.0   ---   14.4   14.2   14.2  1007.3  0.00   0.0   0.027   0.000   23.8    51   13.0   23.8   9.35 1.1648     ---   148    1     64.9   10 
23/11/20 11:20p   14.2   14.4   14.2    81   11.0   0.0   ---   0.00   0.0   ---   14.2   14.1   14.1  1007.3  0.00   0.0   0.029   0.000   23.8    51   13.0   23.8   9.35 1.1648     ---   130    1     57.0   10 
23/11/20 11:30p   14.2   14.2   14.2    82   11.2   0.0   ---   0.00   0.0   ---   14.2   14.1   14.1  1007.4  0.00   0.0   0.029   0.000   23.7    51   12.9   23.7   9.36 1.1654     ---   151    1     66.2   10 
23/11/20 11:40p   14.2   14.2   14.2    83   11.4   0.0   ---   0.00   0.0   ---   14.2   14.1   14.1  1007.4  0.00   0.0   0.029   0.000   23.5    51   12.8   23.4   9.36 1.1663     ---   143    1     62.7   10 
23/11/20 11:50p   14.2   14.2   14.2    83   11.4   0.0   ---   0.00   0.0   ---   14.2   14.1   14.1  1007.3  0.00   0.0   0.029   0.000   23.4    51   12.7   23.3   9.37 1.1667     ---   160    1     70.2   10 
24/11/20 12:00a   14.1   14.2   14.1    83   11.3   0.0   ---   0.00   0.0   ---   14.1   14.0   14.0  1007.3  0.00   0.0   0.029   0.000   23.2    51   12.5   23.0   9.38 1.1678     ---   143    1     62.7   10 
24/11/20 12:10a   13.9   14.1   13.9    82   10.9   0.0   ---   0.00   0.0   ---   13.9   13.8   13.8  1007.3  0.00   0.0   0.030   0.000   23.1    51   12.4   22.9   9.38 1.1681     ---   113    1     49.6   10 
24/11/20 12:20a   13.9   13.9   13.9    82   10.9   0.0   ---   0.00   0.0   ---   13.9   13.8   13.8  1007.4  0.00   0.0   0.031   0.000   23.0    51   12.3   22.8   9.38 1.1688     ---   122    1     53.5   10 
24/11/20 12:30a   13.9   13.9   13.9    82   10.9   0.0   ---   0.00   0.0   ---   13.9   13.8   13.8  1007.4  0.00   0.0   0.031   0.000   22.9    51   12.2   22.7   9.39 1.1693     ---   163    1     71.5   10 
24/11/20 12:40a   13.8   13.9   13.8    83   10.9   0.0   ---   0.00   0.0   ---   13.8   13.7   13.7  1007.4  0.00   0.0   0.032   0.000   22.8    51   12.2   22.6   9.39 1.1696     ---   158    1     69.3   10 
24/11/20 12:50a   13.7   13.8   13.7    83   10.9   0.0   ---   0.00   0.0   ---   13.7   13.6   13.6  1007.5  0.00   0.0   0.032   0.000   22.7    51   12.1   22.5   9.39 1.1703     ---   164    1     71.9   10 
24/11/20  1:00a   13.9   13.9   13.7    83   11.0   0.0   ---   0.00   0.0   ---   13.9   13.8   13.8  1007.3  0.00   0.0   0.031   0.000   22.6    51   12.0   22.3   9.40 1.1706     ---   162    1     71.1   10 
24/11/20  1:10a   13.9   13.9   13.9    81   10.7   0.0   ---   0.00   0.0   ---   13.9   13.8   13.8  1007.3  0.00   0.0   0.030   0.000   22.5    51   11.9   22.2   9.40 1.1711     ---   154    1     67.5   10 
24/11/20  1:20a   14.4   14.4   13.9    78   10.6   0.0   ---   0.00   0.0   ---   14.4   14.2   14.2  1007.9  0.00   0.0   0.027   0.000   22.4    51   11.8   22.1   9.40 1.1721     ---   134    1     58.8   10 
24/11/20  1:30a   14.8   14.8   14.4    75   10.4   0.0   ---   0.00   0.0   ---   14.8   14.6   14.6  1007.6  0.00   0.0   0.024   0.000   22.3    51   11.7   21.9   9.41 1.1724     ---   124    1     54.4   10 
24/11/20  1:40a   14.9   14.9   14.8    74   10.3   0.0   ---   0.00   0.0   ---   14.9   14.6   14.6  1007.6  0.00   0.0   0.024   0.000   22.3    51   11.7   21.9   9.41 1.1724     ---   117    1     51.3   10 
24/11/20  1:50a   14.9   15.0   14.9    74   10.3   0.0   ---   0.00   0.0   ---   14.9   14.6   14.6  1007.5  0.00   0.0   0.024   0.000   22.2    51   11.6   21.8   9.41 1.1728     ---   104    1     45.6   10 
24/11/20  2:00a   14.8   14.9   14.8    75   10.4   0.0   ---   0.00   0.0   ---   14.8   14.6   14.6  1007.3  0.00   0.0   0.024   0.000   22.2    51   11.5   21.7   9.41 1.1728     ---   142    1     62.3   10 
24/11/20  2:10a   14.7   14.8   14.7    76   10.5   0.0   ---   0.00   0.0   ---   14.7   14.5   14.5  1007.3  0.00   0.0   0.025   0.000   22.2    51   11.5   21.7   9.41 1.1728     ---   155    1     68.0   10 
24/11/20  2:20a   14.5   14.7   14.5    75   10.1   0.0   ---   0.00   0.0   ---   14.5   14.2   14.2  1007.2  0.00   0.0   0.027   0.000   22.1    50   11.1   21.4   9.25 1.1735     ---   147    1     64.5   10 
24/11/20  2:30a   14.3   14.5   14.3    75    9.9   0.0   ---   0.00   0.0   ---   14.3   14.0   14.0  1007.1  0.00   0.0   0.028   0.000   22.1    50   11.1   21.4   9.25 1.1735     ---   155    1     68.0   10 
24/11/20  2:40a   14.2   14.3   14.2    76   10.0   0.0   ---   0.00   0.0   ---   14.2   14.0   14.0  1007.1  0.00   0.0   0.029   0.000   21.9    50   11.0   21.3   9.25 1.1740     ---   152    1     66.7   10 
24/11/20  2:50a   13.9   14.2   13.9    78   10.2   0.0   ---   0.00   0.0   ---   13.9   13.7   13.7  1007.1  0.00   0.0   0.030   0.000   21.8    50   10.9   21.2   9.25 1.1746     ---   158    1     69.3   10 
24/11/20  3:00a   13.7   13.9   13.7    78   10.0   0.0   ---   0.00   0.0   ---   13.7   13.5   13.5  1007.0  0.00   0.0   0.032   0.000   21.8    50   10.9   21.2   9.25 1.1744     ---   145    1     63.6   10 
24/11/20  3:10a   13.5   13.7   13.5    79    9.9   0.0   ---   0.00   0.0   ---   13.5   13.3   13.3  1007.0  0.00   0.0   0.034   0.000   21.8    50   10.9   21.1   9.25 1.1747     ---   142    1     62.3   10 
24/11/20  3:20a   13.4   13.4   13.4    79    9.8   0.0   ---   0.00   0.0   ---   13.4   13.2   13.2  1006.7  0.00   0.0   0.034   0.000   21.8    50   10.9   21.1   9.25 1.1743     ---   120    1     52.6   10 
24/11/20  3:30a   13.6   13.6   13.4    78    9.8   0.0   ---   0.00   0.0   ---   13.6   13.3   13.3  1006.5  0.00   0.0   0.033   0.000   21.7    50   10.8   20.9   9.25 1.1746     ---   113    1     49.6   10 
24/11/20  3:40a   13.7   13.7   13.6    76    9.5   0.0   ---   0.00   0.0   ---   13.7   13.4   13.4  1006.5  0.00   0.0   0.032   0.000   21.7    50   10.8   20.9   9.25 1.1746     ---   174    1     76.3   10 
24/11/20  3:50a   13.7   13.7   13.7    75    9.4   0.0   ---   0.00   0.0   ---   13.7   13.4   13.4  1006.4  0.00   0.0   0.032   0.000   21.6    50   10.7   20.7   9.25 1.1750     ---   155    1     68.0   10 
24/11/20  4:00a   13.7   13.8   13.7    74    9.2   0.0   ---   0.00   0.0   ---   13.7   13.4   13.4  1006.3  0.00   0.0   0.032   0.000   21.6    50   10.7   20.7   9.25 1.1750     ---   157    1     68.9   10 
24/11/20  4:10a   13.7   13.7   13.7    74    9.2   0.0   ---   0.00   0.0   ---   13.7   13.4   13.4  1006.3  0.00   0.0   0.032   0.000   21.5    50   10.6   20.7   9.25 1.1753     ---   157    1     68.9   10 
24/11/20  4:20a   13.7   13.7   13.7    74    9.1   0.0   ---   0.00   0.0   ---   13.7   13.3   13.3  1006.2  0.00   0.0   0.032   0.000   21.4    50   10.5   20.5   9.25 1.1757     ---   153    1     67.1   10 
24/11/20  4:30a   13.7   13.7   13.7    73    8.9   0.0   ---   0.00   0.0   ---   13.7   13.3   13.3  1006.3  0.00   0.0   0.032   0.000   21.3    50   10.4   20.4   9.25 1.1764     ---   152    1     66.7   10 
24/11/20  4:40a   13.7   13.7   13.7    72    8.7   0.0   ---   0.00   0.0   ---   13.7   13.3   13.3  1006.3  0.00   0.0   0.032   0.000   21.3    50   10.4   20.4   9.25 1.1764     ---   148    1     64.9   10 
24/11/20  4:50a   13.7   13.7   13.7    71    8.6   0.0   ---   0.00   0.0   ---   13.7   13.3   13.3  1006.6  0.00   0.0   0.032   0.000   21.2    50   10.4   20.3   9.25 1.1770     ---   132    1     57.9   10 
24/11/20  5:00a   13.7   13.7   13.7    72    8.8   0.0   ---   0.00   0.0   ---   13.7   13.3   13.3  1006.8  0.00   0.0   0.032   0.000   21.2    50   10.4   20.3   9.25 1.1772     ---   113    1     49.6   10 
24/11/20  5:10a   13.6   13.7   13.6    73    8.8   0.0   ---   0.00   0.0   ---   13.6   13.2   13.2  1006.8  0.00   0.0   0.033   0.000   21.1    50   10.3   20.2   9.25 1.1778     ---   144    1     63.2   10 
24/11/20  5:20a   13.4   13.6   13.4    74    8.8   0.0   ---   0.00   0.0   ---   13.4   13.1   13.1  1007.1  0.00   0.0   0.034   0.000   21.1    49   10.0   20.1   9.05 1.1784     ---   151    1     66.2   10 
24/11/20  5:30a   13.2   13.4   13.2    75    8.9   0.0   ---   0.00   0.0   ---   13.2   12.9   12.9  1007.2  0.00   0.0   0.035   0.000   21.0    49    9.9   20.1   9.05 1.1791     ---   156    1     68.4   10 
24/11/20  5:40a   13.1   13.2   13.1    77    9.1   0.0   ---   0.00   0.0   ---   13.1   12.8   12.8  1007.2  0.00   0.0   0.037   0.000   20.9    49    9.8   20.0   9.06 1.1793     ---   143    1     62.7   10 
24/11/20  5:50a   12.9   13.1   12.9    77    9.0   0.0   ---   0.00   0.0   ---   12.9   12.7   12.7  1007.6  0.00   0.0   0.038   0.000   20.9    49    9.8   20.0   9.06 1.1797     ---   146    1     64.0   10 
24/11/20  6:00a   12.8   12.9   12.8    78    9.1   0.0   ---   0.00   0.0   ---   12.8   12.6   12.6  1007.6  0.00   0.0   0.038   0.000   20.9    49    9.8   20.0   9.06 1.1798     ---   148    1     64.9   10 
24/11/20  6:10a   12.7   12.8   12.7    78    9.0   0.0   ---   0.00   0.0   ---   12.7   12.5   12.5  1007.6  0.00   0.0   0.039   0.000   20.8    49    9.7   19.9   9.06 1.1804     ---   136    1     59.6   10 
24/11/20  6:20a   12.7   12.7   12.7    79    9.1   0.0   ---   0.00   0.0   ---   12.7   12.5   12.5  1007.6  0.00   0.0   0.039   0.000   20.8    49    9.7   19.9   9.06 1.1803     ---   133    1     58.3   10 
24/11/20  6:30a   12.6   12.7   12.6    81    9.4   0.0   ---   0.00   0.0   ---   12.6   12.4   12.4  1007.6  0.00   0.0   0.040   0.000   20.7    49    9.6   19.8   9.06 1.1809     ---   120    1     52.6   10 
24/11/20  6:40a   12.6   12.6   12.6    81    9.4   0.0   ---   0.00   0.0   ---   12.6   12.4   12.4  1007.6  0.00   0.0   0.040   0.000   20.7    49    9.6   19.8   9.06 1.1809     ---   106    1     46.5   10 
24/11/20  6:50a   12.9   12.9   12.6    81    9.7   0.0   ---   0.00   0.0   ---   12.9   12.7   12.7  1007.8  0.00   0.0   0.038   0.000   20.7    50    9.9   19.9   9.26 1.1808     ---   165    1     72.4   10 
24/11/20  7:00a   13.2   13.2   12.9    79    9.7   0.0   ---   0.00   0.0   ---   13.2   13.0   13.0  1007.9  0.00   0.0   0.035   0.000   20.7    50    9.9   19.9   9.26 1.1809     ---   144    1     63.2   10 
24/11/20  7:10a   13.5   13.5   13.2    76    9.4   0.0   ---   0.00   0.0   ---   13.5   13.2   13.2  1007.9  0.00   0.0   0.034   0.000   20.8    50   10.0   19.9   9.26 1.1804     ---   148    1     64.9   10 
24/11/20  7:20a   13.8   13.8   13.5    74    9.2   0.0   ---   0.00   0.0   ---   13.8   13.4   13.4  1008.3  0.00   0.0   0.032   0.000   21.1    50   10.3   20.2   9.25 1.1795     ---   148    1     64.9   10 
24/11/20  7:30a   14.3   14.3   13.8    75    9.9   0.0   ---   0.00   0.0   ---   14.3   14.0   14.0  1008.3  0.00   0.0   0.028   0.000   21.6    50   10.7   20.7   9.25 1.1773     ---   141    1     61.8   10 
24/11/20  7:40a   14.7   14.7   14.3    70    9.3   0.0   ---   0.00   0.0   ---   14.7   14.3   14.3  1008.3  0.00   0.0   0.025   0.000   21.8    49   10.6   21.0   9.05 1.1765     ---   136    1     59.6   10 
24/11/20  7:50a   15.0   15.0   14.7    68    9.1   0.0   ---   0.00   0.0   ---   15.0   14.6   14.6  1008.5  0.00   0.0   0.023   0.000   22.1    48   10.5   21.3   8.88 1.1757     ---   136    1     59.6   10 
24/11/20  8:00a   15.0   15.1   15.0    67    8.9   0.0   ---   0.00   0.0   ---   15.0   14.5   14.5  1008.7  0.00   0.0   0.023   0.000   22.1    48   10.5   21.3   8.88 1.1760     ---   124    1     54.4   10 
24/11/20  8:10a   14.9   15.0   14.8    67    8.8   0.0   ---   0.00   0.0   ---   14.9   14.4   14.4  1008.7  0.00   0.0   0.024   0.000   22.2    48   10.6   21.6   8.89 1.1754     ---   119    1     52.2   10 
24/11/20  8:20a   15.3   15.3   14.9    65    8.8   0.0   ---   0.00   0.0   ---   15.3   14.8   14.8  1008.9  0.00   0.0   0.021   0.000   22.5    47   10.6   21.9   8.75 1.1744     ---   139    1     61.0   10 
24/11/20  8:30a   15.6   15.7   15.4    63    8.5   0.0   ---   0.00   0.0   ---   15.6   14.9   14.9  1008.8  0.00   0.0   0.019   0.000   22.7    47   10.8   22.3   8.75 1.1731     ---   153    1     67.1   10 
24/11/20  8:40a   15.5   15.6   15.5    63    8.5   0.0   ---   0.00   0.0   ---   15.5   14.9   14.9  1008.8  0.00   0.0   0.020   0.000   22.8    46   10.6   22.4   8.59 1.1729     ---   150    1     65.8   10 
24/11/20  8:50a   15.6   15.6   15.4    64    8.8   0.0   ---   0.00   0.0   ---   15.6   15.0   15.0  1009.1  0.00   0.0   0.019   0.000   22.9    46   10.7   22.4   8.59 1.1731     ---   150    1     65.8   10 
24/11/20  9:00a   15.8   15.8   15.7    62    8.6   0.0   ---   0.00   0.0   ---   15.8   15.2   15.2  1009.4  0.00   0.0   0.017   0.000   23.0    45   10.4   22.6   8.45 1.1732     ---   156    1     68.4   10 
24/11/20  9:10a   16.2   16.2   15.8    61    8.6   0.0   ---   0.00   0.0   ---   16.2   15.6   15.6  1009.4  0.00   0.0   0.015   0.000   23.2    45   10.6   22.8   8.45 1.1724     ---   153    1     67.1   10 
24/11/20  9:20a   16.3   16.3   16.2    61    8.8   0.0   ---   0.00   0.0   ---   16.3   15.7   15.7  1009.6  0.00   0.0   0.014   0.000   23.2    45   10.6   22.8   8.45 1.1726     ---   150    1     65.8   10 
24/11/20  9:30a   16.6   16.6   16.3    61    9.1   0.0   ---   0.00   0.0   ---   16.6   16.0   16.0  1009.8  0.00   0.0   0.012   0.000   23.4    45   10.8   23.1   8.45 1.1718     ---   137    1     60.1   10 
24/11/20  9:40a   17.1   17.1   16.6    59    9.0   0.0   ---   0.00   0.0   ---   17.1   16.4   16.4  1009.8  0.00   0.0   0.008   0.000   23.7    44   10.7   23.4   8.26 1.1707     ---   110    1     48.2   10 
24/11/20  9:50a   18.0   18.0   17.2    59    9.9   0.0   ---   0.00   0.0   ---   18.0   17.5   17.5  1009.5  0.00   0.0   0.002   0.000   24.1    44   11.0   23.8   8.24 1.1684     ---   143    1     62.7   10 
24/11/20 10:00a   18.8   18.8   18.0    55    9.6   0.0   ---   0.00   0.0   ---   18.8   18.2   18.2  1009.1  0.00   0.0   0.000   0.003   24.3    43   10.9   24.0   8.05 1.1670     ---   154    1     67.5   10 
24/11/20 10:10a   19.0   19.0   18.8    55    9.8   0.0   ---   0.00   0.0   ---   19.0   18.4   18.4  1009.1  0.00   0.0   0.000   0.005   24.7    42   10.9   24.3   7.92 1.1657     ---   149    1     65.4   10 
24/11/20 10:20a   19.4   19.4   19.0    58   11.0   0.0   ---   0.00   0.0   ---   19.4   19.1   19.1  1009.2  0.00   0.0   0.000   0.008   24.8    42   11.0   24.4   7.92 1.1651     ---   157    1     68.9   10 
24/11/20 10:30a   20.1   20.1   19.6    48    8.8   0.0   ---   0.00   0.0   ---   20.1   19.3   19.3  1008.8  0.00   0.0   0.000   0.012   25.1    42   11.2   24.7   7.91 1.1635     ---   149    1     65.4   10 
24/11/20 10:40a   20.4   20.4   20.1    51    9.9   0.0   ---   0.00   0.0   ---   20.4   19.7   19.7  1008.8  0.00   0.0   0.000   0.014   25.2    41   11.0   24.7   7.75 1.1633     ---   159    1     69.7   10 
24/11/20 10:50a   20.6   20.6   20.4    52   10.4   0.0   ---   0.00   0.0   ---   20.6   19.9   19.9  1008.7  0.00   0.0   0.000   0.015   25.2    41   11.0   24.7   7.75 1.1632     ---   149    1     65.4   10 
24/11/20 11:00a   21.2   21.2   20.6    54   11.5   0.0   ---   0.00   0.0   ---   21.2   20.5   20.5  1008.4  0.00   0.0   0.000   0.020   25.2    41   11.0   24.7   7.75 1.1629     ---   133    1     58.3   10 
24/11/20 11:10a   21.5   21.5   21.1    52   11.2   0.0   ---   0.00   0.0   ---   21.5   20.8   20.8  1008.4  0.00   0.0   0.000   0.022   25.2    41   11.0   24.7   7.75 1.1629     ---   116    1     50.9   10 
24/11/20 11:20a   21.7   21.8   21.5    46    9.5   0.0   ---   0.00   0.0   ---   21.7   20.7   20.7  1008.4  0.00   0.0   0.000   0.023   25.2    41   11.0   24.7   7.75 1.1629     ---   179    1     78.5   10 
24/11/20 11:30a   22.6   22.6   21.8    51   11.9   0.0   ---   0.00   0.0   ---   22.6   22.2   22.2  1008.3  0.00   0.0   0.000   0.029   25.2    41   11.0   24.8   7.75 1.1625     ---   158    1     69.3   10 
24/11/20 11:40a   22.7   22.7   22.6    49   11.4   0.0   ---   0.00   0.0   ---   22.7   22.3   22.3  1008.3  0.00   0.0   0.000   0.030   25.2    41   11.0   24.8   7.75 1.1625     ---   159    1     69.7   10 
24/11/20 11:50a   22.3   22.7   22.3    52   11.9   0.0   ---   0.00   0.0   ---   22.3   21.9   21.9  1008.5  0.00   0.0   0.000   0.027   25.2    41   11.0   24.8   7.75 1.1628     ---   158    1     69.3   10 
24/11/20 12:00p   22.3   22.3   22.3    52   12.0   0.0   ---   0.00   0.0   ---   22.3   21.9   21.9  1008.4  0.00   0.0   0.000   0.028   25.2    41   11.0   24.8   7.75 1.1626     ---   153    1     67.1   10 
24/11/20 12:10p   22.6   22.6   22.3    50   11.6   0.0   ---   0.00   0.0   ---   22.6   22.2   22.2  1008.4  0.00   0.0   0.000   0.029   25.3    41   11.1   24.9   7.75 1.1621     ---   159    1     69.7   10 
24/11/20 12:20p   22.7   22.7   22.4    51   12.0   0.0   ---   0.00   0.0   ---   22.7   22.4   22.4  1008.4  0.00   0.0   0.000   0.030   25.3    41   11.1   24.9   7.75 1.1621     ---   146    1     64.0   10 
24/11/20 12:30p   22.8   22.8   22.7    53   12.7   0.0   ---   0.00   0.0   ---   22.8   22.7   22.7  1008.0  0.00   0.0   0.000   0.031   25.4    41   11.2   25.0   7.75 1.1611     ---   123    1     53.9   10 
24/11/20 12:40p   22.7   22.8   22.7    49   11.4   0.0   ---   0.00   0.0   ---   22.7   22.3   22.3  1008.0  0.00   0.0   0.000   0.030   25.4    41   11.2   25.0   7.75 1.1611     ---   156    1     68.4   10 
24/11/20 12:50p   22.6   22.7   22.6    51   11.9   0.0   ---   0.00   0.0   ---   22.6   22.2   22.2  1008.1  0.00   0.0   0.000   0.029   25.3    41   11.1   24.9   7.75 1.1617     ---   160    1     70.2   10 
24/11/20  1:00p   22.8   22.9   22.4    45   10.3   0.0   ---   0.00   0.0   ---   22.8   22.3   22.3  1007.9  0.00   0.0   0.000   0.031   25.3    41   11.1   24.9   7.75 1.1615     ---   160    1     70.2   10 
24/11/20  1:10p   22.7   22.8   22.6    52   12.4   0.0   ---   0.00   0.0   ---   22.7   22.6   22.6  1007.9  0.00   0.0   0.000   0.030   25.4    41   11.2   25.0   7.75 1.1609     ---   163    1     71.5   10 
24/11/20  1:20p   23.1   23.1   22.7    49   11.8   0.0   ---   0.00   0.0   ---   23.1   22.9   22.9  1007.7  0.00   0.0   0.000   0.033   25.4    41   11.2   25.0   7.75 1.1607     ---   160    1     70.2   10 
24/11/20  1:30p   23.3   23.3   23.2    53   13.2   0.0   ---   0.00   0.0   ---   23.3   23.3   23.3  1007.6  0.00   0.0   0.000   0.035   25.4    41   11.2   25.0   7.75 1.1606     ---   163    1     71.5   10 
24/11/20  1:40p   23.8   23.8   23.3    46   11.5   0.0   ---   0.00   0.0   ---   23.8   23.6   23.6  1007.6  0.00   0.0   0.000   0.038   25.4    41   11.2   25.0   7.75 1.1606     ---   150    1     65.8   10 
24/11/20  1:50p   23.9   23.9   23.8    42   10.2   0.0   ---   0.00   0.0   ---   23.9   23.6   23.6  1007.3  0.00   0.0   0.000   0.039   25.4    41   11.2   25.0   7.75 1.1603     ---   127    1     55.7   10 
24/11/20  2:00p   23.8   23.9   23.8    49   12.4   0.0   ---   0.00   0.0   ---   23.8   23.7   23.7  1007.0  0.00   0.0   0.000   0.038   25.3    41   11.1   24.9   7.75 1.1605     ---   138    1     60.5   10 
24/11/20  2:10p   23.2   23.7   23.2    44   10.3   0.0   ---   0.00   0.0   ---   23.2   22.8   22.8  1007.0  0.00   0.0   0.000   0.034   25.3    42   11.5   24.9   7.90 1.1601     ---   180    1     78.9   10 
24/11/20  2:20p   23.7   23.7   23.2    47   11.7   0.0   ---   0.00   0.0   ---   23.7   23.6   23.6  1007.1  0.00   0.0   0.000   0.037   25.4    42   11.6   25.1   7.89 1.1597     ---   162    1     71.1   10 
24/11/20  2:30p   23.8   23.8   23.7    47   11.8   0.0   ---   0.00   0.0   ---   23.8   23.7   23.7  1006.7  0.00   0.0   0.000   0.038   25.4    42   11.6   25.1   7.89 1.1592     ---   163    1     71.5   10 
24/11/20  2:40p   24.1   24.1   23.8    45   11.4   0.0   ---   0.00   0.0   ---   24.1   23.9   23.9  1006.7  0.00   0.0   0.000   0.040   25.6    42   11.7   25.2   7.89 1.1587     ---   162    1     71.1   10 
24/11/20  2:50p   24.1   24.3   24.1    46   11.8   0.0   ---   0.00   0.0   ---   24.1   23.9   23.9  1006.5  0.00   0.0   0.000   0.040   25.6    42   11.7   25.2   7.89 1.1584     ---   160    1     70.2   10 
24/11/20  3:00p   23.7   24.1   23.7    46   11.4   0.0   ---   0.00   0.0   ---   23.7   23.6   23.6  1006.5  0.00   0.0   0.000   0.037   25.6    42   11.7   25.2   7.89 1.1584     ---   160    1     70.2   10 
24/11/20  3:10p   23.9   23.9   23.6    48   12.2   0.0   ---   0.00   0.0   ---   23.9   23.8   23.8  1006.5  0.00   0.0   0.000   0.039   25.6    42   11.7   25.2   7.89 1.1581     ---   140    1     61.4   10 
24/11/20  3:20p   24.7   24.7   24.0    48   12.9   0.0   ---   0.00   0.0   ---   24.7   24.6   24.6  1006.3  0.00   0.0   0.000   0.044   25.7    42   11.8   25.3   7.88 1.1574     ---   127    1     55.7   10 
24/11/20  3:30p   25.3   25.3   24.8    44   12.1   0.0   ---   0.00   0.0   ---   25.3   25.0   25.0  1006.0  0.00   0.0   0.000   0.048   25.8    42   11.9   25.4   7.88 1.1565     ---   169    1     74.1   10 
24/11/20  3:40p   24.8   25.4   24.8    40   10.3   0.0   ---   0.00   0.0   ---   24.8   24.3   24.3  1006.0  0.00   0.0   0.000   0.045   25.8    42   11.9   25.4   7.88 1.1565     ---   162    1     71.1   10 
24/11/20  3:50p   24.9   24.9   24.5    46   12.5   0.0   ---   0.00   0.0   ---   24.9   24.7   24.7  1006.0  0.00   0.0   0.000   0.046   25.9    42   12.0   25.6   7.88 1.1560     ---   161    1     70.6   10 
24/11/20  4:00p   25.3   25.3   24.9    44   12.1   0.0   ---   0.00   0.0   ---   25.3   25.0   25.0  1005.8  0.00   0.0   0.000   0.048   25.9    42   12.0   25.6   7.88 1.1557     ---   156    1     68.4   10 
24/11/20  4:10p   25.4   25.6   25.3    39   10.5   0.0   ---   0.00   0.0   ---   25.4   24.9   24.9  1005.8  0.00   0.0   0.000   0.049   26.1    42   12.1   25.7   7.87 1.1552     ---   167    1     73.2   10 
24/11/20  4:20p   25.7   25.7   25.4    38   10.3   0.0   ---   0.00   0.0   ---   25.7   25.1   25.1  1005.5  0.00   0.0   0.000   0.051   26.1    42   12.1   25.7   7.87 1.1548     ---   165    1     72.4   10 
24/11/20  4:30p   25.4   25.7   25.4    39   10.4   0.0   ---   0.00   0.0   ---   25.4   24.9   24.9  1005.7  0.00   0.0   0.000   0.049   26.1    42   12.1   25.7   7.87 1.1550     ---   141    1     61.8   10 
24/11/20  4:40p   24.6   25.4   24.6    42   10.8   0.0   ---   0.00   0.0   ---   24.6   24.2   24.2  1005.7  0.00   0.0   0.000   0.043   26.1    42   12.1   25.7   7.87 1.1550     ---   119    1     52.2   10 
24/11/20  4:50p   23.7   24.5   23.7    44   10.7   0.0   ---   0.00   0.0   ---   23.7   23.4   23.4  1005.8  0.00   0.0   0.000   0.037   25.9    42   12.0   25.6   7.88 1.1557     ---   151    1     66.2   10 
24/11/20  5:00p   23.0   23.7   23.0    46   10.8   0.0   ---   0.00   0.0   ---   23.0   22.6   22.6  1006.0  0.00   0.0   0.000   0.032   25.9    42   12.0   25.6   7.88 1.1560     ---   153    1     67.1   10 
24/11/20  5:10p   22.8   23.0   22.8    46   10.6   0.0   ---   0.00   0.0   ---   22.8   22.4   22.4  1006.0  0.00   0.0   0.000   0.031   25.8    43   12.3   25.5   8.05 1.1562     ---   147    1     64.5   10 
24/11/20  5:20p   22.4   22.7   22.4    48   10.9   0.0   ---   0.00   0.0   ---   22.4   21.9   21.9  1005.9  0.00   0.0   0.000   0.029   25.7    42   11.8   25.3   7.88 1.1570     ---   142    1     62.3   10 
24/11/20  5:30p   22.3   22.4   22.3    49   11.1   0.0   ---   0.00   0.0   ---   22.3   21.8   21.8  1006.0  0.00   0.0   0.000   0.028   25.6    42   11.7   25.2   7.89 1.1575     ---   161    1     70.6   10 
24/11/20  5:40p   22.3   22.3   22.3    52   12.0   0.0   ---   0.00   0.0   ---   22.3   21.9   21.9  1006.0  0.00   0.0   0.000   0.028   25.6    42   11.7   25.2   7.89 1.1575     ---   153    1     67.1   10 
24/11/20  5:50p   22.3   22.3   22.3    51   11.7   0.0   ---   0.00   0.0   ---   22.3   21.9   21.9  1006.1  0.00   0.0   0.000   0.028   25.6    42   11.7   25.2   7.89 1.1580     ---   144    1     63.2   10 
24/11/20  6:00p   22.6   22.6   22.3    50   11.6   0.0   ---   0.00   0.0   ---   22.6   22.2   22.2  1006.1  0.00   0.0   0.000   0.029   25.6    42   11.7   25.2   7.89 1.1580     ---   124    1     54.4   10 
24/11/20  6:10p   22.7   22.7   22.6    51   12.1   0.0   ---   0.00   0.0   ---   22.7   22.5   22.5  1006.1  0.00   0.0   0.000   0.030   25.6    43   12.0   25.2   8.05 1.1576     ---   117    1     51.3   10 
24/11/20  6:20p   22.7   22.8   22.7    52   12.3   0.0   ---   0.00   0.0   ---   22.7   22.4   22.4  1006.3  0.00   0.0   0.000   0.030   25.4    43   11.9   25.1   8.05 1.1584     ---   173    1     75.9   10 
24/11/20  6:30p   21.6   22.7   21.6    56   12.5   0.0   ---   0.00   0.0   ---   21.6   21.1   21.1  1006.9  0.00   0.0   0.000   0.023   25.3    43   11.8   25.0   8.05 1.1596     ---   135    1     59.2   10 
24/11/20  6:40p   20.0   21.6   20.0    60   12.0   0.0   ---   0.00   0.0   ---   20.0   19.8   19.8  1006.9  0.00   0.0   0.000   0.012   25.1    42   11.2   24.7   7.91 1.1613     ---   149    1     65.4   10 
24/11/20  6:50p   19.1   20.0   19.1    64   12.1   0.0   ---   0.00   0.0   ---   19.1   19.0   19.0  1007.6  0.00   0.0   0.000   0.005   24.7    42   10.9   24.3   7.92 1.1637     ---   149    1     65.4   10 
24/11/20  7:00p   18.7   19.1   18.7    65   12.0   0.0   ---   0.00   0.0   ---   18.7   18.6   18.6  1007.8  0.00   0.0   0.000   0.002   24.7    43   11.2   24.3   8.05 1.1639     ---   145    1     63.6   10 
24/11/20  7:10p   18.1   18.7   18.1    67   11.9   0.0   ---   0.00   0.0   ---   18.1   17.9   17.9  1007.8  0.00   0.0   0.002   0.000   24.6    43   11.1   24.2   8.05 1.1644     ---   147    1     64.5   10 
24/11/20  7:20p   17.7   18.1   17.7    67   11.5   0.0   ---   0.00   0.0   ---   17.7   17.4   17.4  1007.9  0.00   0.0   0.005   0.000   24.6    43   11.1   24.2   8.05 1.1646     ---   133    1     58.3   10 
24/11/20  7:30p   17.3   17.7   17.3    69   11.6   0.0   ---   0.00   0.0   ---   17.3   17.2   17.2  1008.3  0.00   0.0   0.007   0.000   24.6    44   11.5   24.3   8.23 1.1646     ---    92    1     40.4   10 
24/11/20  7:40p   17.1   17.3   17.1    71   11.8   0.0   ---   0.00   0.0   ---   17.1   16.9   16.9  1008.3  0.00   0.0   0.009   0.000   24.4    44   11.4   24.2   8.23 1.1652     ---   132    1     57.9   10 
24/11/20  7:50p   16.7   17.1   16.7    72   11.6   0.0   ---   0.00   0.0   ---   16.7   16.5   16.5  1008.7  0.00   0.0   0.011   0.000   24.3    44   11.3   24.1   8.23 1.1662     ---   161    1     70.6   10 
24/11/20  8:00p   16.4   16.7   16.4    73   11.6   0.0   ---   0.00   0.0   ---   16.4   16.2   16.2  1008.9  0.00   0.0   0.013   0.000   24.3    45   11.6   24.1   8.43 1.1661     ---   151    1     66.2   10 
24/11/20  8:10p   16.3   16.4   16.3    74   11.6   0.0   ---   0.00   0.0   ---   16.3   16.1   16.1  1008.9  0.00   0.0   0.014   0.000   24.3    46   12.0   24.2   8.53 1.1658     ---   154    1     67.5   10 
24/11/20  8:20p   16.0   16.2   16.0    74   11.4   0.0   ---   0.00   0.0   ---   16.0   15.8   15.8  1008.9  0.00   0.0   0.016   0.000   24.3    47   12.3   24.2   8.73 1.1654     ---   156    1     68.4   10 
24/11/20  8:30p   15.8   16.0   15.8    75   11.4   0.0   ---   0.00   0.0   ---   15.8   15.7   15.7  1009.4  0.00   0.0   0.017   0.000   24.3    47   12.2   24.2   8.74 1.1662     ---   162    1     71.1   10 
24/11/20  8:40p   15.7   15.8   15.7    76   11.4   0.0   ---   0.00   0.0   ---   15.7   15.5   15.5  1009.4  0.00   0.0   0.019   0.000   24.2    47   12.1   24.1   8.74 1.1667     ---   156    1     68.4   10 
24/11/20  8:50p   15.6   15.7   15.6    76   11.3   0.0   ---   0.00   0.0   ---   15.6   15.4   15.4  1010.1  0.00   0.0   0.019   0.000   24.1    47   12.0   23.9   8.74 1.1681     ---   132    1     57.9   10 
24/11/20  9:00p   15.5   15.6   15.5    76   11.3   0.0   ---   0.00   0.0   ---   15.5   15.3   15.3  1010.2  0.00   0.0   0.020   0.000   23.9    47   11.9   23.8   8.75 1.1688     ---   121    1     53.1   10 
24/11/20  9:10p   15.3   15.4   15.3    77   11.3   0.0   ---   0.00   0.0   ---   15.3   15.2   15.2  1010.2  0.00   0.0   0.021   0.000   23.9    47   11.9   23.8   8.75 1.1688     ---   137    1     60.1   10 
24/11/20  9:20p   15.2   15.3   15.2    78   11.4   0.0   ---   0.00   0.0   ---   15.2   15.1   15.1  1010.2  0.00   0.0   0.022   0.000   23.9    47   11.9   23.8   8.75 1.1688     ---   155    1     68.0   10 
24/11/20  9:30p   15.2   15.2   15.2    78   11.4   0.0   ---   0.00   0.0   ---   15.2   15.1   15.1  1010.5  0.00   0.0   0.022   0.000   23.9    47   11.9   23.8   8.75 1.1692     ---   132    1     57.9   10 
24/11/20  9:40p   15.2   15.2   15.2    78   11.4   0.0   ---   0.00   0.0   ---   15.2   15.0   15.0  1010.5  0.00   0.0   0.022   0.000   23.9    47   11.9   23.8   8.75 1.1692     ---   120    1     52.6   10 
24/11/20  9:50p   15.1   15.2   15.1    79   11.4   0.0   ---   0.00   0.0   ---   15.1   14.9   14.9  1010.8  0.00   0.0   0.023   0.000   23.9    47   11.9   23.8   8.75 1.1695     ---   139    1     61.0   10 
24/11/20 10:00p   15.0   15.1   15.0    79   11.4   0.0   ---   0.00   0.0   ---   15.0   14.8   14.8  1011.0  0.00   0.0   0.023   0.000   23.9    47   11.9   23.8   8.75 1.1697     ---   130    1     57.0   10 
24/11/20 10:10p   14.9   15.0   14.9    78   11.1   0.0   ---   0.00   0.0   ---   14.9   14.7   14.7  1011.0  0.00   0.0   0.024   0.000   23.9    47   11.9   23.8   8.75 1.1700     ---   124    1     54.4   10 
24/11/20 10:20p   14.9   14.9   14.9    78   11.1   0.0   ---   0.00   0.0   ---   14.9   14.7   14.7  1011.0  0.00   0.0   0.024   0.000   23.9    47   11.9   23.8   8.75 1.1700     ---   105    1     46.1   10